Moundville, AL (35474)

2:50 AM CDT on October 26, 2014 (GMT -0500)
Mallard Creek | Change Station
CLOSE
Current Station
Personal Weather Station
Location: Tuscaloosa, AL
Elevation: 177 ft
Nearby Weather Stations

Elev 177 ft 33.14 °N, 87.56 °W | Updated 2 minutes ago

Clear
Clear
56.8 °F
Feels Like 56.8 °F
N
0.0
Wind Variable Wind from SSE

Today
High -- | Low -- °F
--% Chance of Precip.
Yesterday
High -- | Low -- °F
Precip. -- in
7:03 AM 6:04 PM
Waxing Crescent, 6% visible
Pressure 30.04 in
Visibility 10.0 miles
Clouds Few 300 ft
Dew Point 54 °F
Humidity 92%
Rainfall 0.00 in
Snow Depth Not available.
UV 0 out of 12
Pollen 2.40 out of 12
Ozone Good
PM2.5 Moderate
Flu Activity Sporadic
METAR KTCL 260653Z AUTO 00000KT 10SM FEW003 14/13 A3005 RMK AO2 SLP173 T01440133

More Conditions Fewer Conditions

Pressure 30.04 in
Visibility 10.0 miles
Clouds Few 300 ft
Dew Point 54 °F
Humidity 92%
Rainfall 0.00 in
Snow Depth Not available.
UV 0 out of 12
Pollen 2.40 out of 12
Ozone Good
PM2.5 Moderate
Flu Activity Sporadic
METAR KTCL 260653Z AUTO 00000KT 10SM FEW003 14/13 A3005 RMK AO2 SLP173 T01440133

More Conditions Fewer Conditions

10-Day Weather Forecast

Almanac

Astronomy

Oct. 26, 2014 Rise Set
Actual Time 7:03 AM CDT 6:04 PM CDT
Civil Twilight 6:38 AM CDT 6:30 PM CDT
Nautical Twilight 6:09 AM CDT 6:59 PM CDT
Astronomical Twilight 5:40 AM CDT 7:27 PM CDT
Moon 9:35 AM CDT 8:21 PM CDT
Length of Visible Light 11h 52m
Length of Day
11h 01m
Tomorrow will be 1m 51s shorter.
Waxing Crescent, 6% of the Moon is Illuminated
Today
Waxing Crescent
Oct 30
First Quarter
Nov 6
Full
Nov 14
Last Quarter
Nov 22
New

Today's Extremes

State Highs State Lows

Community

WunderPhotos

Upload Photos

1,765,115 photos uploaded!

Nearby

Air Quality

  Air Quality AQ Index Pollutant
Yesterday Good
PM10
Yesterday Good
OZONE
Current Moderate
PM2.5
Current Good
OZONE
Sunday Moderate
PM2.5
Monday Moderate
PM2.5

Snow Depth

Station Depth Elevation
No new snow has been reported.

Earthquake Activity

City Distance Mag. Time & Date
No recent earthquake activity has been reported nearby.
Minimum magnitude displayed is 2.5.

Coastal Water Temperatures

Place Temperature
No Stations Reporting

Nearby Weather Stations